Sunray, Texas
Current Conditions -  °F | °C
As of 10:51 PM on Saturday 22 Nov 2014 (Local Time) from KBGD Reporting Station
Clear Clear  
Wind Chill: 42°   Ceiling: Unl
Heat Index: 48°   Visibility: 10mi
Dew Point: 44°   Wind: 15mph
Humidity: 86%   Direction: 180°S
Pressure: 29.6"   Gusts: 24mph
Location:  36.02°N, 101.82°W
Report Text: KBGD 230451Z AUTO 18013G21KT 10SM CLR 09/07 A2960 RMK AO2 SLP005 T00890067
Loading
Personal Weather Stations






























Interactive Weather Map New forecast layout! Learn more

10-Day Weather Forecast

Advertisements
Track Severe Weather on mobile